Terminal Aerodrome Forecast
Issued by NWS

Home | Current Version | Previous Version | Text Only | Print | Product List | Glossary On
Versions: 1 2 3 4 5 6 7 8 9 10 11 12 13 14 15 16
000
FTUS45 KABQ 251100
TAFFMN
TAF
KFMN 251130Z 2512/2612 VRB06KT P6SM SCT150
     FM251900 26011G18KT P6SM BKN110
     FM260100 32010KT P6SM VCTS OVC090CB=

USA.gov is the U.S. government's official web portal to all federal, state and local government web resources and services.